Terminal Aerodrome Forecast
Issued by NWS Tuscon, AZ

Home | Current Version | Previous Version | Text Only | Print | Product List | Glossary On
Versions: 1 2 3 4 5 6 7 8 9 10 11 12 13 14
000
FTUS45 KTWC 271700
TAFTUS
TAF
KTUS 271735Z 2718/2818 14005KT P6SM BKN060
     FM272000 32005KT P6SM SCT070
     FM280400 22004KT P6SM FEW100 SCT250
     FM280700 14007KT P6SM BKN250=

USA.gov is the U.S. government's official web portal to all federal, state and local government web resources and services.